Time;durP1;ratioP1;P1;durP2;ratioP2;P2;SDS_P1;SDS_P2;PMS_P1;PMS_P2;Temp;Humidity;BMP_temperature;BMP_pressure;BME280_temperature;BME280_humidity;BME280_pressure;Samples;Min_cycle;Max_cycle;Signal;HPM_P1;HPM_P2
2023/02/21 02:15:16;;;;;;;8.20;3.60;;;;;;;5.41;73.66;98276.28;106004;1261;61386;-54
2023/02/21 02:18:12;;;;;;;10.10;4.40;;;;;;;5.47;72.97;98273.60;105083;1261;65044;-53
2023/02/21 02:20:56;;;;;;;7.50;3.10;;;;;;;5.51;72.54;98273.61;104829;1267;59558;-53
2023/02/21 02:23:41;;;;;;;7.00;1.20;;;;;;;5.57;72.19;98266.61;105125;1261;59726;-55
2023/02/21 02:26:50;;;;;;;5.20;1.40;;;;;;;5.64;71.39;98276.77;104986;1263;65309;-54
2023/02/21 02:29:57;;;;;;;6.80;2.90;;;;;;;5.64;70.83;98269.29;105154;1263;62468;-52
2023/02/21 02:33:03;;;;;;;9.90;1.50;;;;;;;5.62;70.46;98282.44;105516;1257;65145;-51
2023/02/21 02:35:57;;;;;;;3.40;1.30;;;;;;;5.57;69.47;98284.68;104900;1260;59756;-52
2023/02/21 02:38:37;;;;;;;5.40;1.40;;;;;;;5.66;69.05;98286.66;105621;1260;59608;-54
2023/02/21 02:41:11;;;;;;;6.70;1.40;;;;;;;5.70;68.90;98294.74;105415;1260;65075;-53
2023/02/21 02:44:05;;;;;;;2.30;0.80;;;;;;;5.72;68.46;98297.23;105405;1260;62557;-53
2023/02/21 02:46:37;;;;;;;4.20;1.10;;;;;;;5.71;68.53;98296.73;105124;1261;64943;-52
2023/02/21 02:49:15;;;;;;;7.50;2.80;;;;;;;5.69;67.85;98301.34;104986;1264;59670;-54
2023/02/21 02:51:43;;;;;;;7.00;3.00;;;;;;;5.68;67.94;98294.61;104894;1261;59528;-55
2023/02/21 02:54:12;;;;;;;9.90;4.30;;;;;;;5.72;67.96;98300.33;104888;1265;65112;-53
2023/02/21 02:56:44;;;;;;;11.90;5.90;;;;;;;5.77;68.01;98302.13;104796;1260;62666;-53
2023/02/21 02:59:17;;;;;;;12.00;6.90;;;;;;;5.78;68.09;98297.19;105277;1260;64799;-54
2023/02/21 03:02:12;;;;;;;12.40;8.10;;;;;;;5.76;68.12;98298.89;105987;1259;59676;-53
2023/02/21 03:05:32;;;;;;;9.00;5.20;;;;;;;5.74;68.32;98292.02;105438;1253;59680;-51
2023/02/21 03:08:11;;;;;;;4.00;1.30;;;;;;;5.73;68.47;98290.84;105271;1254;65475;-52
2023/02/21 03:10:57;;;;;;;5.70;2.90;;;;;;;5.77;68.45;98290.16;105759;1257;61624;-53
2023/02/21 03:13:39;;;;;;;6.20;2.40;;;;;;;5.76;68.28;98297.16;105282;1255;64728;-53
2023/02/21 03:16:24;;;;;;;7.90;2.90;;;;;;;5.78;68.20;98284.27;105193;1257;60475;-53
2023/02/21 03:19:16;;;;;;;9.90;6.00;;;;;;;5.77;68.17;98281.77;105142;1260;60432;-53
2023/02/21 03:21:50;;;;;;;7.10;3.00;;;;;;;5.71;68.23;98287.52;105368;1257;66045;-53
2023/02/21 03:24:19;;;;;;;4.80;1.20;;;;;;;5.72;68.27;98279.79;105241;1254;61633;-53
2023/02/21 03:26:48;;;;;;;5.80;2.10;;;;;;;5.78;68.16;98290.73;105228;1259;64739;-52
2023/02/21 03:29:40;;;;;;;5.80;1.80;;;;;;;5.82;68.15;98293.40;105208;1254;60441;-54
2023/02/21 03:34:38;;;;;;;6.20;2.50;;;;;;;5.80;68.10;98313.70;105177;1254;66237;-55
2023/02/21 03:37:10;;;;;;;4.90;2.00;;;;;;;5.75;68.15;98317.41;105481;1254;62657;-53
2023/02/21 03:39:38;;;;;;;7.60;2.20;;;;;;;5.72;68.02;98316.30;105192;1254;63917;-54
2023/02/21 03:42:07;;;;;;;3.90;1.50;;;;;;;5.74;68.06;98322.42;105277;1256;60487;-54
2023/02/21 03:44:37;;;;;;;6.10;1.20;;;;;;;5.77;68.02;98325.44;105346;1260;60386;-54
2023/02/21 03:47:06;;;;;;;9.80;2.40;;;;;;;5.80;67.86;98326.22;105348;1259;66170;-52
2023/02/21 03:49:35;;;;;;;5.10;1.70;;;;;;;5.80;67.86;98319.80;105614;1254;62452;-54
2023/02/21 03:52:04;;;;;;;5.50;2.10;;;;;;;5.81;67.65;98315.03;105327;1256;63997;-55
2023/02/21 03:54:34;;;;;;;3.70;1.10;;;;;;;5.77;67.51;98315.85;105242;1254;60410;-55
2023/02/21 03:57:03;;;;;;;6.20;1.00;;;;;;;5.71;67.67;98314.98;105105;1257;60480;-54
2023/02/21 03:59:39;;;;;;;3.90;1.10;;;;;;;5.70;67.60;98307.45;105349;1258;65891;-53
2023/02/21 04:02:07;;;;;;;8.50;2.20;;;;;;;5.75;67.28;98318.69;105386;1254;62396;-52
2023/02/21 04:04:36;;;;;;;4.70;1.80;;;;;;;5.77;66.94;98314.61;105521;1257;65291;-54
2023/02/21 04:07:11;;;;;;;5.20;1.90;;;;;;;5.74;66.84;98316.98;106333;1254;60375;-53
2023/02/21 04:09:40;;;;;;;8.90;2.20;;;;;;;5.71;66.79;98315.40;105496;1254;60883;-54
2023/02/21 04:12:08;;;;;;;4.30;1.30;;;;;;;5.71;66.69;98318.66;105404;1255;65817;-54
2023/02/21 04:14:39;;;;;;;5.60;1.60;;;;;;;5.75;66.45;98327.39;105609;1253;62425;-54
2023/02/21 04:17:08;;;;;;;3.20;0.80;;;;;;;5.79;66.31;98318.17;105398;1257;64941;-54
2023/02/21 04:19:36;;;;;;;4.70;1.60;;;;;;;5.80;66.46;98316.86;105520;1256;60480;-55
2023/02/21 04:22:08;;;;;;;5.80;1.90;;;;;;;5.76;66.63;98315.47;105444;1257;60350;-52
2023/02/21 04:24:38;;;;;;;10.00;2.50;;;;;;;5.72;66.74;98308.49;106222;1254;66273;-54
2023/02/21 04:27:06;;;;;;;6.30;2.10;;;;;;;5.67;66.92;98304.13;105206;1254;62642;-53
2023/02/21 04:29:37;;;;;;;5.80;2.10;;;;;;;5.66;67.16;98305.77;105382;1259;63801;-53
2023/02/21 04:32:06;;;;;;;3.10;0.80;;;;;;;5.68;67.33;98307.16;105391;1254;60505;-56
2023/02/21 04:34:37;;;;;;;7.10;2.90;;;;;;;5.69;67.35;98298.54;105322;1254;60507;-53
2023/02/21 04:37:05;;;;;;;12.10;2.60;;;;;;;5.66;67.50;98301.54;105355;1258;66033;-55
2023/02/21 04:39:35;;;;;;;4.60;0.80;;;;;;;5.61;67.66;98302.77;105887;1254;61593;-54
2023/02/21 04:42:03;;;;;;;7.90;2.30;;;;;;;5.55;67.74;98301.70;105379;1254;64717;-54
2023/02/21 04:44:32;;;;;;;6.80;2.40;;;;;;;5.50;67.82;98311.39;105224;1254;60578;-54
2023/02/21 04:47:01;;;;;;;3.90;1.40;;;;;;;5.48;67.77;98307.79;105486;1254;60537;-54
2023/02/21 04:49:29;;;;;;;4.50;0.80;;;;;;;5.53;67.58;98313.75;105406;1254;64985;-54
2023/02/21 04:51:58;;;;;;;6.90;2.10;;;;;;;5.59;67.39;98316.45;105404;1254;62391;-54
2023/02/21 04:54:26;;;;;;;5.80;1.80;;;;;;;5.63;67.19;98316.11;105419;1257;64889;-55
2023/02/21 04:56:55;;;;;;;5.10;1.70;;;;;;;5.64;66.97;98324.38;105241;1256;60424;-56
2023/02/21 04:59:23;;;;;;;6.50;2.10;;;;;;;5.62;67.10;98335.54;105866;1254;60490;-54
2023/02/21 05:01:52;;;;;;;6.50;1.70;;;;;;;5.57;67.13;98330.77;105482;1255;64759;-53
2023/02/21 05:04:20;;;;;;;3.00;0.90;;;;;;;5.53;67.30;98335.70;105393;1254;62788;-53
2023/02/21 05:06:50;;;;;;;2.70;0.70;;;;;;;5.55;67.23;98336.70;105459;1253;65886;-53
2023/02/21 05:09:18;;;;;;;5.30;1.10;;;;;;;5.60;67.22;98335.92;105351;1254;60474;-53
2023/02/21 05:11:46;;;;;;;8.20;2.40;;;;;;;5.62;67.13;98332.41;105393;1253;60458;-53
2023/02/21 05:14:17;;;;;;;5.40;1.00;;;;;;;5.60;67.13;98337.79;105362;1255;66038;-53
2023/02/21 05:16:45;;;;;;;8.40;4.70;;;;;;;5.58;67.13;98334.33;105412;1257;61348;-54
2023/02/21 05:19:26;;;;;;;10.20;5.80;;;;;;;5.54;67.18;98335.25;105457;1255;65090;-54
2023/02/21 05:21:56;;;;;;;8.80;4.00;;;;;;;5.51;67.10;98331.14;105480;1254;60565;-54
2023/02/21 05:24:25;;;;;;;4.50;1.80;;;;;;;5.57;66.91;98330.05;105316;1254;60798;-55
2023/02/21 05:26:56;;;;;;;4.30;1.40;;;;;;;5.66;66.59;98335.11;105316;1255;66214;-54
2023/02/21 05:29:24;;;;;;;2.40;0.70;;;;;;;5.69;66.40;98333.84;105426;1254;62619;-53
2023/02/21 05:31:52;;;;;;;3.40;1.10;;;;;;;5.67;66.30;98332.99;105189;1257;65002;-54
2023/02/21 05:34:21;;;;;;;8.70;3.80;;;;;;;5.65;66.29;98334.02;105359;1254;59779;-56
2023/02/21 05:36:49;;;;;;;8.30;3.70;;;;;;;5.63;66.23;98339.23;105480;1255;60567;-54
2023/02/21 05:39:18;;;;;;;9.90;3.10;;;;;;;5.67;66.14;98333.20;105553;1255;66154;-53
2023/02/21 05:41:48;;;;;;;7.80;2.60;;;;;;;5.72;66.08;98338.24;105509;1258;62637;-53
2023/02/21 05:44:16;;;;;;;5.20;1.90;;;;;;;5.78;65.91;98339.61;105584;1254;65156;-54
2023/02/21 05:46:45;;;;;;;7.00;2.70;;;;;;;5.81;65.94;98343.02;105423;1260;60454;-53
2023/02/21 05:49:13;;;;;;;6.80;2.20;;;;;;;5.83;65.98;98342.86;105369;1256;60330;-53
2023/02/21 05:51:42;;;;;;;3.30;1.00;;;;;;;5.83;65.78;98337.94;105479;1255;66295;-52
2023/02/21 05:54:16;;;;;;;4.50;1.60;;;;;;;5.83;65.81;98339.14;105593;1258;62460;-52
2023/02/21 05:56:45;;;;;;;7.30;1.70;;;;;;;5.84;65.86;98341.70;105423;1254;67719;-52
2023/02/21 05:59:14;;;;;;;3.90;0.80;;;;;;;5.91;65.71;98345.17;105250;1256;60550;-52
2023/02/21 06:01:42;;;;;;;5.80;2.10;;;;;;;6.02;65.63;98347.84;105876;1254;60466;-55
2023/02/21 06:04:11;;;;;;;3.30;0.80;;;;;;;6.10;65.40;98348.50;105345;1255;66184;-53
2023/02/21 06:06:39;;;;;;;7.30;2.30;;;;;;;6.12;65.21;98348.37;105234;1254;62483;-54
2023/02/21 06:09:09;;;;;;;6.80;1.70;;;;;;;6.09;65.14;98348.56;105295;1256;64839;-54
2023/02/21 06:11:39;;;;;;;6.00;2.00;;;;;;;6.05;65.05;98350.04;105294;1254;60548;-54
2023/02/21 06:14:18;;;;;;;4.70;0.80;;;;;;;6.01;65.26;98350.38;105227;1254;60473;-54
2023/02/21 06:16:47;;;;;;;5.40;1.30;;;;;;;5.98;65.16;98350.50;109043;1254;66206;-55
2023/02/21 06:19:15;;;;;;;6.20;2.00;;;;;;;5.99;65.24;98353.52;109183;1253;61552;-55
2023/02/21 06:21:44;;;;;;;6.00;1.60;;;;;;;6.02;65.04;98358.63;105620;1254;64972;-53
2023/02/21 06:24:12;;;;;;;6.70;1.60;;;;;;;6.14;64.58;98359.10;105901;1259;60902;-54
2023/02/21 06:26:42;;;;;;;6.50;2.20;;;;;;;6.23;64.29;98352.31;105104;1257;60434;-55
2023/02/21 06:29:10;;;;;;;8.10;2.20;;;;;;;6.29;64.16;98352.64;105372;1259;66139;-55
2023/02/21 06:31:38;;;;;;;3.60;0.80;;;;;;;6.33;63.60;98362.69;105318;1256;62344;-55
2023/02/21 06:34:07;;;;;;;9.80;2.30;;;;;;;6.32;63.36;98364.39;105407;1253;65047;-53
2023/02/21 06:36:38;;;;;;;7.80;2.10;;;;;;;6.35;63.27;98363.78;105437;1256;60543;-54
2023/02/21 06:39:07;;;;;;;7.20;2.10;;;;;;;6.36;63.09;98355.98;105884;1254;60464;-53
2023/02/21 06:41:35;;;;;;;7.10;2.00;;;;;;;6.44;63.00;98364.66;105275;1256;66192;-54
2023/02/21 06:44:03;;;;;;;9.80;1.50;;;;;;;6.51;62.71;98382.08;105340;1256;62650;-54
2023/02/21 06:46:31;;;;;;;8.20;1.60;;;;;;;6.55;62.65;98376.48;105289;1259;65042;-54
2023/02/21 06:49:00;;;;;;;6.20;1.80;;;;;;;6.56;62.74;98373.98;105373;1254;60448;-53
2023/02/21 06:51:35;;;;;;;2.80;0.60;;;;;;;6.57;62.66;98380.33;105125;1254;60448;-53
2023/02/21 06:54:04;;;;;;;2.70;0.80;;;;;;;6.57;62.59;98372.84;105302;1258;65928;-53
2023/02/21 06:56:33;;;;;;;4.10;1.40;;;;;;;6.60;62.70;98375.17;105043;1255;62339;-56
2023/02/21 06:59:01;;;;;;;5.40;1.70;;;;;;;6.65;62.69;98379.34;105310;1254;65034;-55
2023/02/21 07:01:30;;;;;;;4.40;1.30;;;;;;;6.73;62.23;98384.33;105369;1254;60446;-54
2023/02/21 07:03:58;;;;;;;2.40;0.50;;;;;;;6.78;61.96;98384.38;105388;1253;60446;-53
2023/02/21 07:06:27;;;;;;;6.90;1.90;;;;;;;6.80;61.95;98379.30;105275;1258;66174;-52
2023/02/21 07:08:57;;;;;;;4.60;1.40;;;;;;;6.82;61.67;98382.29;105341;1254;63513;-53
2023/02/21 07:11:26;;;;;;;5.20;1.60;;;;;;;6.86;61.53;98382.09;105522;1258;64747;-52
2023/02/21 07:13:57;;;;;;;8.20;2.00;;;;;;;6.90;61.37;98389.42;105464;1254;60315;-52
2023/02/21 07:16:31;;;;;;;5.70;1.50;;;;;;;6.87;60.86;98399.07;105450;1254;60464;-53
2023/02/21 07:18:59;;;;;;;5.60;1.40;;;;;;;6.83;61.08;98389.27;105457;1255;65993;-52
2023/02/21 07:21:28;;;;;;;5.50;1.70;;;;;;;6.89;60.95;98381.90;105483;1254;62627;-53
2023/02/21 07:23:57;;;;;;;6.30;1.90;;;;;;;6.95;60.73;98388.36;105492;1258;64873;-54
2023/02/21 07:26:25;;;;;;;7.00;1.90;;;;;;;6.94;60.71;98388.81;105395;1256;60503;-54
2023/02/21 07:28:53;;;;;;;7.80;1.90;;;;;;;6.94;60.86;98376.45;105558;1257;60477;-53
2023/02/21 07:31:22;;;;;;;6.40;1.70;;;;;;;6.93;60.74;98377.96;105414;1255;65905;-53
2023/02/21 07:33:51;;;;;;;8.30;2.10;;;;;;;6.91;60.63;98376.56;105456;1254;62591;-54
2023/02/21 07:36:19;;;;;;;5.40;1.60;;;;;;;6.88;60.55;98367.41;105480;1257;63882;-52
2023/02/21 07:38:48;;;;;;;5.70;1.50;;;;;;;6.88;60.65;98367.92;105499;1253;60563;-53
2023/02/21 07:41:16;;;;;;;6.00;1.70;;;;;;;6.95;60.73;98358.85;105556;1256;60470;-52
2023/02/21 07:43:44;;;;;;;2.50;0.70;;;;;;;7.05;60.32;98359.11;105463;1258;66261;-53
2023/02/21 07:46:14;;;;;;;7.50;2.30;;;;;;;7.09;60.11;98361.95;105560;1256;63587;-53
2023/02/21 07:48:43;;;;;;;7.30;1.80;;;;;;;7.13;60.37;98369.73;105716;1257;73543;-53
2023/02/21 07:51:11;;;;;;;7.90;2.10;;;;;;;7.21;60.20;98373.46;105515;1254;60494;-53
2023/02/21 07:53:40;;;;;;;5.40;1.70;;;;;;;7.29;59.87;98364.70;105498;1253;60557;-53
2023/02/21 07:56:09;;;;;;;6.40;2.10;;;;;;;7.31;59.86;98366.23;105415;1257;65903;-52
2023/02/21 07:58:38;;;;;;;6.50;2.00;;;;;;;7.29;59.68;98361.18;105941;1254;62657;-51
2023/02/21 08:01:06;;;;;;;3.90;1.20;;;;;;;7.29;59.62;98353.04;105546;1256;65040;-53
2023/02/21 08:03:36;;;;;;;7.80;2.40;;;;;;;7.36;59.52;98363.77;105470;1254;61720;-52
2023/02/21 08:06:05;;;;;;;6.70;2.40;;;;;;;7.47;58.90;98357.51;105535;1253;60494;-53
2023/02/21 08:08:34;;;;;;;6.20;1.70;;;;;;;7.53;58.92;98355.98;106295;1253;65165;-52
2023/02/21 08:11:03;;;;;;;7.00;2.20;;;;;;;7.56;58.70;98360.25;105566;1254;62551;-55
2023/02/21 08:13:33;;;;;;;6.20;1.80;;;;;;;7.57;58.24;98368.34;105470;1254;64887;-52
2023/02/21 08:16:02;;;;;;;8.50;2.40;;;;;;;7.57;58.34;98365.53;105420;1256;60809;-54
2023/02/21 08:18:36;;;;;;;5.30;1.70;;;;;;;7.58;58.74;98361.77;105464;1256;60446;-57
2023/02/21 08:21:07;;;;;;;6.30;2.10;;;;;;;7.59;58.59;98357.16;105896;1255;66034;-56
2023/02/21 08:23:35;;;;;;;6.20;2.30;;;;;;;7.60;58.70;98369.25;105318;1255;61592;-55
2023/02/21 08:26:05;;;;;;;7.60;2.10;;;;;;;7.60;58.43;98364.54;105419;1254;65050;-56
2023/02/21 08:28:33;;;;;;;6.30;1.70;;;;;;;7.60;58.08;98362.61;105151;1260;60563;-53
2023/02/21 08:31:02;;;;;;;4.80;1.90;;;;;;;7.62;57.93;98377.61;105229;1255;60466;-53
2023/02/21 08:33:31;;;;;;;6.50;2.20;;;;;;;7.63;58.11;98369.63;105280;1254;66189;-55
2023/02/21 08:35:59;;;;;;;6.00;2.30;;;;;;;7.64;57.52;98360.52;105223;1254;71179;-52
2023/02/21 08:38:27;;;;;;;4.50;0.70;;;;;;;7.63;57.38;98366.46;105311;1256;64724;-54
2023/02/21 08:40:56;;;;;;;6.20;1.90;;;;;;;7.62;57.58;98367.07;105503;1254;60464;-53
2023/02/21 08:43:24;;;;;;;7.10;2.60;;;;;;;7.62;57.83;98366.96;105340;1253;60483;-55
2023/02/21 08:45:53;;;;;;;4.10;1.10;;;;;;;7.62;58.10;98366.62;105157;1255;66164;-56
2023/02/21 08:48:21;;;;;;;9.30;2.10;;;;;;;7.61;57.90;98369.64;105289;1254;62429;-54
2023/02/21 08:50:52;;;;;;;7.30;2.10;;;;;;;7.59;57.96;98369.50;105232;1253;64975;-54
2023/02/21 08:53:21;;;;;;;6.20;2.10;;;;;;;7.59;58.21;98372.88;105188;1259;60573;-54
2023/02/21 08:55:49;;;;;;;2.70;0.90;;;;;;;7.60;59.67;98375.33;105279;1256;60452;-53
2023/02/21 08:58:18;;;;;;;5.90;1.80;;;;;;;7.63;60.22;98376.11;106208;1254;66416;-55
2023/02/21 09:00:46;;;;;;;8.10;2.30;;;;;;;7.66;60.45;98363.60;105278;1254;72271;-53
2023/02/21 09:03:18;;;;;;;8.00;2.00;;;;;;;7.66;60.97;98359.24;105341;1258;65026;-54
2023/02/21 09:05:47;;;;;;;10.40;2.20;;;;;;;7.63;60.96;98358.60;105493;1253;60533;-54
2023/02/21 09:08:19;;;;;;;6.50;2.00;;;;;;;7.60;61.06;98359.34;105282;1254;60632;-55
2023/02/21 09:10:48;;;;;;;8.60;2.80;;;;;;;7.58;61.63;98358.97;105332;1258;66183;-55
2023/02/21 09:13:17;;;;;;;7.00;2.30;;;;;;;7.59;61.97;98362.83;105336;1254;62376;-55
2023/02/21 09:15:46;;;;;;;9.70;1.90;;;;;;;7.62;61.69;98360.30;105351;1257;64056;-54
2023/02/21 09:18:14;;;;;;;7.80;2.10;;;;;;;7.72;61.37;98367.75;105320;1253;60492;-55
2023/02/21 09:20:51;;;;;;;7.70;2.20;;;;;;;7.84;60.84;98370.84;105268;1254;60530;-54
2023/02/21 09:23:20;;;;;;;6.30;1.50;;;;;;;7.91;60.23;98361.59;105203;1256;65272;-54
2023/02/21 09:25:48;;;;;;;8.20;2.50;;;;;;;7.95;59.98;98356.83;105695;1256;61205;-55
2023/02/21 09:28:17;;;;;;;9.60;2.90;;;;;;;7.96;59.59;98357.76;105719;1253;64872;-54
2023/02/21 09:30:46;;;;;;;8.70;2.30;;;;;;;8.02;58.49;98348.11;106282;1253;60539;-53
2023/02/21 09:33:14;;;;;;;6.20;2.10;;;;;;;8.04;58.18;98342.02;105186;1257;60442;-53
2023/02/21 09:35:42;;;;;;;6.30;2.10;;;;;;;8.05;57.61;98340.34;105292;1257;65918;-55
2023/02/21 09:38:11;;;;;;;5.90;2.10;;;;;;;8.10;57.68;98341.57;105310;1253;62641;-54
2023/02/21 09:40:42;;;;;;;7.40;2.20;;;;;;;8.19;57.13;98342.17;105206;1254;65126;-54
2023/02/21 09:43:27;;;;;;;7.90;2.10;;;;;;;8.29;55.90;98344.17;105205;1255;60536;-55
2023/02/21 09:45:57;;;;;;;4.60;1.90;;;;;;;8.39;55.50;98333.88;105414;1255;60488;-54
2023/02/21 09:48:27;;;;;;;6.90;1.90;;;;;;;8.46;54.64;98338.95;105760;1254;64925;-53
2023/02/21 09:51:01;;;;;;;7.10;2.30;;;;;;;8.50;53.91;98321.25;105226;1253;62512;-54
2023/02/21 09:53:32;;;;;;;9.00;2.20;;;;;;;8.56;53.99;98326.49;109151;1254;65009;-54
2023/02/21 09:56:11;;;;;;;8.10;2.00;;;;;;;8.60;53.50;98326.31;109076;1254;58486;-55
2023/02/21 09:58:42;;;;;;;7.10;2.00;;;;;;;8.58;53.91;98337.88;109095;1254;58280;-54
2023/02/21 10:01:55;;;;;;;9.30;2.10;;;;;;;8.52;54.35;98338.25;109257;1255;65200;-55
2023/02/21 10:04:35;;;;;;;5.80;1.60;;;;;;;8.49;54.75;98342.30;108563;1261;62643;-55
2023/02/21 10:07:30;;;;;;;5.00;1.80;;;;;;;8.47;55.22;98339.20;105340;1261;63704;-54
2023/02/21 10:10:13;;;;;;;7.80;2.30;;;;;;;8.44;56.04;98344.05;105322;1253;60571;-54
2023/02/21 10:12:55;;;;;;;8.40;1.80;;;;;;;8.33;56.34;98366.02;105345;1255;60335;-55
2023/02/21 10:15:29;;;;;;;6.10;1.70;;;;;;;8.15;57.67;98373.13;105384;1254;65205;-53
2023/02/21 10:18:04;;;;;;;6.60;1.80;;;;;;;7.99;59.67;98361.36;105539;1256;62377;-55
2023/02/21 10:20:58;;;;;;;5.80;1.60;;;;;;;7.88;60.63;98353.16;105352;1257;65028;-62
2023/02/21 10:23:46;;;;;;;8.40;2.10;;;;;;;7.80;61.55;98354.52;105356;1257;60595;-54
2023/02/21 10:26:27;;;;;;;5.40;1.60;;;;;;;7.68;60.63;98375.41;105694;1256;60445;-54
2023/02/21 10:28:55;;;;;;;6.60;1.80;;;;;;;7.55;60.67;98353.16;105167;1253;65900;-54
2023/02/21 10:31:37;;;;;;;5.10;1.90;;;;;;;7.52;61.44;98358.17;105379;1256;62810;-56
2023/02/21 10:34:15;;;;;;;4.70;1.40;;;;;;;7.58;61.41;98360.56;105043;1255;64815;-53
2023/02/21 10:36:44;;;;;;;6.90;1.90;;;;;;;7.61;61.30;98355.88;108829;1256;243675;-54
2023/02/21 10:41:05;;;;;;;2.40;0.80;;;;;;;7.38;62.16;98341.25;102377;1295;601094;-53
2023/02/21 10:43:43;;;;;;;6.50;1.90;;;;;;;7.51;61.91;98336.48;108465;1265;57021;-55
2023/02/21 10:46:27;;;;;;;6.80;1.40;;;;;;;7.59;61.76;98337.57;108323;1266;57037;-54
2023/02/21 10:49:08;;;;;;;6.40;1.90;;;;;;;7.65;61.45;98337.38;108490;1266;63324;-54
2023/02/21 10:51:36;;;;;;;3.80;1.40;;;;;;;7.72;61.28;98335.30;108356;1266;61435;-54
2023/02/21 10:54:23;;;;;;;5.60;2.00;;;;;;;7.80;60.42;98346.80;108281;1263;184341;-57
2023/02/21 10:56:52;;;;;;;5.50;1.80;;;;;;;7.88;60.44;98365.27;108655;1263;57163;-54
2023/02/21 10:59:24;;;;;;;5.30;1.70;;;;;;;7.87;61.10;98382.14;105219;1263;59333;-53
2023/02/21 11:01:53;;;;;;;4.60;1.40;;;;;;;7.60;60.91;98379.16;104665;1267;64702;-53
2023/02/21 11:04:23;;;;;;;7.20;1.70;;;;;;;7.30;61.53;98385.34;104936;1268;62446;-53
2023/02/21 11:07:00;;;;;;;7.80;2.00;;;;;;;7.07;63.12;98385.83;104590;1264;65152;-54
2023/02/21 11:09:36;;;;;;;5.20;1.70;;;;;;;7.01;64.28;98397.70;104864;1268;59662;-55
2023/02/21 11:12:29;;;;;;;6.00;2.00;;;;;;;7.00;64.95;98399.00;104968;1263;59676;-55
2023/02/21 11:14:59;;;;;;;4.40;1.40;;;;;;;6.88;65.75;98394.39;104901;1268;65366;-56
2023/02/21 11:17:27;;;;;;;7.30;1.90;;;;;;;6.79;66.05;98398.73;104825;1263;62720;-57
2023/02/21 11:20:01;;;;;;;5.20;1.60;;;;;;;6.67;66.34;98406.70;104895;1266;64781;-56
2023/02/21 11:22:33;;;;;;;5.80;1.30;;;;;;;6.54;67.71;98402.67;104954;1264;60948;-57
2023/02/21 11:25:27;;;;;;;6.70;1.80;;;;;;;6.50;67.80;98408.47;105212;1264;59758;-56
2023/02/21 11:28:05;;;;;;;5.90;1.90;;;;;;;6.49;68.14;98412.05;104932;1264;66273;-55
2023/02/21 11:30:36;;;;;;;6.70;1.90;;;;;;;6.45;68.65;98405.46;104757;1264;62484;-55
2023/02/21 11:33:05;;;;;;;4.70;1.90;;;;;;;6.44;68.29;98400.16;105047;1268;64066;-56
2023/02/21 11:35:42;;;;;;;6.70;2.00;;;;;;;6.43;68.40;98396.83;105137;1263;59694;-56
2023/02/21 11:38:36;;;;;;;4.80;1.40;;;;;;;6.46;68.48;98398.73;104992;1264;59649;-55
2023/02/21 11:41:19;;;;;;;6.10;1.70;;;;;;;6.64;68.52;98396.90;104837;1267;65406;-55
2023/02/21 11:43:52;;;;;;;7.60;1.90;;;;;;;6.79;67.99;98394.29;105002;1264;61426;-54
2023/02/21 11:46:29;;;;;;;9.60;2.00;;;;;;;6.95;67.17;98399.52;105034;1264;73469;-55
2023/02/21 11:49:11;;;;;;;6.70;2.00;;;;;;;7.09;66.67;98406.67;104895;1264;60258;-56
2023/02/21 11:51:46;;;;;;;5.70;0.70;;;;;;;7.25;66.51;98408.41;104826;1264;61635;-55
2023/02/21 11:54:15;;;;;;;4.30;1.60;;;;;;;7.42;65.69;98413.21;104996;1264;72962;-58
2023/02/21 11:56:49;;;;;;;4.70;1.70;;;;;;;7.53;65.23;98414.11;104808;1264;71521;-56
2023/02/21 11:59:29;;;;;;;6.60;1.60;;;;;;;7.62;64.44;98408.83;104971;1269;72673;-55
2023/02/21 12:02:33;;;;;;;5.70;1.40;;;;;;;7.71;64.61;98420.56;105437;1256;59678;-54
2023/02/21 12:05:41;;;;;;;6.00;1.10;;;;;;;7.51;62.87;98441.96;105362;1260;59622;-56
2023/02/21 12:08:13;;;;;;;4.40;1.10;;;;;;;7.32;63.92;98422.67;105292;1260;65477;-54
2023/02/21 12:10:53;;;;;;;4.90;1.40;;;;;;;7.28;64.20;98418.84;105320;1257;62229;-59
2023/02/21 12:13:42;;;;;;;5.10;1.20;;;;;;;7.30;64.64;98410.42;105430;1260;64025;-55
2023/02/21 12:16:20;;;;;;;4.70;1.20;;;;;;;7.34;64.93;98420.52;105292;1257;59610;-54
2023/02/21 12:19:05;;;;;;;3.80;1.20;;;;;;;7.35;64.67;98430.83;105295;1257;59832;-56
2023/02/21 12:21:34;;;;;;;3.30;0.50;;;;;;;7.39;64.46;98439.66;105237;1260;65221;-54
2023/02/21 12:24:21;;;;;;;4.80;1.40;;;;;;;7.42;64.43;98438.20;105318;1259;61462;-55
2023/02/21 12:27:22;;;;;;;3.30;1.20;;;;;;;7.50;64.02;98430.95;105282;1257;64910;-55
2023/02/21 12:30:16;;;;;;;6.50;1.40;;;;;;;7.57;63.39;98435.88;105401;1258;59636;-56
2023/02/21 12:33:07;;;;;;;4.10;1.20;;;;;;;7.59;62.67;98419.40;105239;1257;59683;-55
2023/02/21 12:35:56;;;;;;;5.00;1.30;;;;;;;7.57;61.77;98423.95;105484;1260;65517;-55
2023/02/21 12:38:36;;;;;;;4.50;1.50;;;;;;;7.62;61.32;98431.04;105279;1260;71694;-55
2023/02/21 12:41:12;;;;;;;4.60;1.00;;;;;;;7.66;60.95;98432.72;105375;1260;73541;-54
2023/02/21 12:43:53;;;;;;;4.60;1.40;;;;;;;7.75;60.53;98435.81;105144;1258;62183;-55
2023/02/21 12:46:31;;;;;;;6.00;1.80;;;;;;;7.94;60.42;98432.88;105363;1258;60325;-55
2023/02/21 12:49:02;;;;;;;5.00;1.40;;;;;;;8.05;59.84;98441.02;105217;1261;74426;-53
2023/02/21 12:51:41;;;;;;;4.80;1.20;;;;;;;8.11;59.24;98441.39;105329;1258;71273;-54
2023/02/21 12:54:18;;;;;;;4.80;1.20;;;;;;;8.17;59.21;98433.01;105311;1262;72325;-54
2023/02/21 12:56:52;;;;;;;4.90;1.50;;;;;;;8.31;58.39;98449.23;105307;1262;59675;-54
2023/02/21 12:59:46;;;;;;;4.20;1.60;;;;;;;8.58;57.83;98452.67;105243;1262;61348;-54
2023/02/21 13:02:33;;;;;;;4.20;1.50;;;;;;;8.55;57.27;98461.77;105295;1262;73727;-54
2023/02/21 13:05:10;;;;;;;6.00;1.70;;;;;;;8.44;57.43;98457.77;105314;1261;61349;-56
2023/02/21 13:08:00;;;;;;;5.10;1.40;;;;;;;8.33;58.10;98462.01;105385;1262;65016;-56
2023/02/21 13:10:42;;;;;;;4.40;1.20;;;;;;;8.28;58.55;98477.70;105413;1257;59557;-54
2023/02/21 13:13:12;;;;;;;3.30;1.00;;;;;;;8.21;59.76;98478.67;105282;1257;60344;-55
2023/02/21 13:15:46;;;;;;;3.30;1.10;;;;;;;8.07;60.75;98487.36;105115;1260;65687;-55
2023/02/21 13:18:19;;;;;;;4.10;1.30;;;;;;;7.88;61.78;98486.93;105302;1262;62755;-54
2023/02/21 13:20:54;;;;;;;6.40;1.20;;;;;;;8.41;60.85;98469.55;105243;1260;73635;-56
2023/02/21 13:23:42;;;;;;;5.00;1.30;;;;;;;8.70;59.68;98472.05;105570;1259;61373;-56
2023/02/21 13:26:36;;;;;;;5.30;1.40;;;;;;;9.60;57.58;98476.69;105300;1262;60137;-55
2023/02/21 13:29:16;;;;;;;5.00;1.40;;;;;;;10.58;54.87;98473.02;105252;1262;73919;-55
2023/02/21 13:31:44;;;;;;;4.40;1.60;;;;;;;11.06;53.26;98473.64;105085;1260;70958;-55
2023/02/21 13:34:18;;;;;;;5.70;1.40;;;;;;;11.91;51.67;98473.36;105976;1260;73565;-54
2023/02/21 13:36:46;;;;;;;6.20;1.70;;;;;;;12.82;49.43;98475.58;105297;1260;61404;-55
2023/02/21 13:39:30;;;;;;;3.60;1.30;;;;;;;13.28;47.72;98473.85;105261;1257;61592;-55
2023/02/21 13:42:14;;;;;;;5.40;1.50;;;;;;;12.93;47.10;98479.21;105344;1258;65715;-55
2023/02/21 13:44:44;;;;;;;4.40;1.40;;;;;;;12.09;47.88;98496.99;106022;1257;61974;-54
2023/02/21 13:47:14;;;;;;;5.10;1.80;;;;;;;11.17;49.49;98494.27;105299;1260;65524;-55
2023/02/21 13:49:51;;;;;;;3.10;1.00;;;;;;;10.36;51.89;98499.86;105594;1257;59745;-55
2023/02/21 13:52:22;;;;;;;6.10;1.90;;;;;;;9.79;53.93;98507.55;105396;1257;59653;-55
2023/02/21 13:55:10;;;;;;;4.90;1.30;;;;;;;9.35;55.49;98507.30;105369;1260;64384;-54
2023/02/21 13:57:39;;;;;;;6.30;1.10;;;;;;;9.40;56.28;98501.36;105366;1257;71668;-54
2023/02/21 14:00:28;;;;;;;5.40;1.80;;;;;;;9.97;55.93;98506.39;105206;1258;73630;-55
2023/02/21 14:03:00;;;;;;;4.50;1.50;;;;;;;10.78;53.46;98510.61;108035;1257;60728;-54
2023/02/21 14:05:43;;;;;;;4.90;1.40;;;;;;;10.99;52.34;98506.36;105503;1260;63949;-55
2023/02/21 14:08:34;;;;;;;5.60;1.60;;;;;;;10.98;52.19;98506.48;105402;1260;74131;-56
2023/02/21 14:11:05;;;;;;;5.30;1.50;;;;;;;11.71;51.20;98495.78;105500;1258;71122;-55
2023/02/21 14:13:36;;;;;;;4.10;1.60;;;;;;;12.70;48.85;98495.33;105339;1260;74018;-56
2023/02/21 14:16:11;;;;;;;5.00;1.60;;;;;;;13.59;46.91;98496.63;105464;1257;61192;-55
2023/02/21 14:18:50;;;;;;;7.60;1.60;;;;;;;14.12;45.07;98502.48;105272;1257;61088;-55
2023/02/21 14:21:42;;;;;;;4.90;1.40;;;;;;;13.72;43.56;98511.45;105358;1260;65362;-54
2023/02/21 14:24:16;;;;;;;4.90;1.30;;;;;;;12.71;44.95;98518.41;105269;1260;62446;-56